createdAt,value
2018-02-12T00:01:11.105Z,2.00
2018-02-12T00:03:38.633Z,2.10
2018-02-12T00:06:06.182Z,2.10
2018-02-12T00:08:33.743Z,2.20
2018-02-12T00:11:01.320Z,2.20
2018-02-12T00:13:28.837Z,2.10
2018-02-12T00:15:57.213Z,2.00
2018-02-12T00:18:25.151Z,2.00
2018-02-12T00:20:52.777Z,2.00
2018-02-12T00:23:21.116Z,2.00
2018-02-12T00:25:48.640Z,2.00
2018-02-12T00:28:16.904Z,1.90
2018-02-12T00:30:44.468Z,1.90
2018-02-12T00:33:11.984Z,1.90
2018-02-12T00:35:39.607Z,1.90
2018-02-12T00:38:07.152Z,1.90
2018-02-12T00:40:34.691Z,1.90
2018-02-12T00:43:02.959Z,1.90
2018-02-12T00:45:30.514Z,1.90
2018-02-12T00:47:58.092Z,1.90
2018-02-12T00:50:25.617Z,1.90
2018-02-12T00:52:53.200Z,1.80
2018-02-12T00:55:20.755Z,1.80
2018-02-12T00:57:48.244Z,1.70
2018-02-12T01:00:15.776Z,1.70
2018-02-12T01:02:44.081Z,1.80
2018-02-12T01:05:11.701Z,1.80
2018-02-12T01:07:39.212Z,1.80
2018-02-12T01:10:07.549Z,1.70
2018-02-12T01:12:35.122Z,1.70
2018-02-12T01:15:02.682Z,1.70
2018-02-12T01:20:05.017Z,1.60
2018-02-12T01:22:32.535Z,1.60
2018-02-12T01:25:00.058Z,1.60
2018-02-12T01:27:27.584Z,1.60
2018-02-12T01:29:55.129Z,1.60
2018-02-12T01:32:23.554Z,1.50
2018-02-12T01:34:51.087Z,1.50
2018-02-12T01:37:18.721Z,1.40
2018-02-12T01:39:46.319Z,1.40
2018-02-12T01:42:13.929Z,1.40
2018-02-12T01:44:42.198Z,1.20
2018-02-12T01:47:09.777Z,1.20
2018-02-12T01:49:38.517Z,1.20
2018-02-12T01:52:06.068Z,1.20
2018-02-12T01:54:33.634Z,1.30
2018-02-12T01:57:01.945Z,1.40
2018-02-12T01:59:29.931Z,1.40
2018-02-12T02:01:57.576Z,1.50
2018-02-12T02:04:25.849Z,1.60
2018-02-12T02:06:53.409Z,1.60
2018-02-12T02:09:20.996Z,1.70
2018-02-12T02:11:49.347Z,1.60
2018-02-12T02:14:16.885Z,1.60
2018-02-12T02:16:44.465Z,1.60
2018-02-12T02:19:12.029Z,1.60
2018-02-12T02:21:39.602Z,1.50
2018-02-12T02:24:07.201Z,1.40
2018-02-12T02:26:34.839Z,1.20
2018-02-12T02:29:03.140Z,1.10
2018-02-12T02:31:30.693Z,1.10
2018-02-12T02:33:59.089Z,1.10
2018-02-12T02:36:27.423Z,1.10
2018-02-12T02:38:54.952Z,1.10
2018-02-12T02:41:22.489Z,1.20
2018-02-12T02:43:50.101Z,1.10
2018-02-12T02:46:17.666Z,1.00
2018-02-12T02:48:46.000Z,0.90
2018-02-12T02:51:13.536Z,0.90
2018-02-12T02:53:41.077Z,0.90
2018-02-12T02:56:08.646Z,1.00
2018-02-12T02:58:36.201Z,1.10
2018-02-12T03:01:03.775Z,1.30
2018-02-12T03:03:31.288Z,1.40
2018-02-12T03:05:59.702Z,1.40
2018-02-12T03:08:27.255Z,1.40
2018-02-12T03:10:55.554Z,1.50
2018-02-12T03:13:23.133Z,1.50
2018-02-12T03:15:50.732Z,1.50
2018-02-12T03:18:18.284Z,1.50
2018-02-12T03:20:45.847Z,1.50
2018-02-12T03:23:13.355Z,1.60
2018-02-12T03:25:40.970Z,1.60
2018-02-12T03:28:09.286Z,1.60
2018-02-12T03:30:36.785Z,1.60
2018-02-12T03:33:04.376Z,1.70
2018-02-12T03:35:31.890Z,1.70
2018-02-12T03:37:59.464Z,1.70
2018-02-12T03:40:27.023Z,1.80
2018-02-12T03:42:55.358Z,1.80
2018-02-12T03:45:22.912Z,1.80
2018-02-12T03:47:50.464Z,1.80
2018-02-12T03:50:18.005Z,1.80
2018-02-12T03:52:45.525Z,1.80
2018-02-12T03:55:13.064Z,1.80
2018-02-12T03:57:41.350Z,1.70
2018-02-12T04:00:09.681Z,1.80
2018-02-12T04:02:37.232Z,1.70
2018-02-12T04:05:04.776Z,1.80
2018-02-12T04:07:32.382Z,1.80
2018-02-12T04:10:00.038Z,1.80
2018-02-12T04:12:28.314Z,1.60
2018-02-12T04:14:55.877Z,1.60
2018-02-12T04:17:23.446Z,1.60
2018-02-12T04:19:51.056Z,1.60
2018-02-12T04:22:18.582Z,1.60
2018-02-12T04:24:46.138Z,1.60
2018-02-12T04:27:13.662Z,1.60
2018-02-12T04:29:42.001Z,1.60
2018-02-12T04:32:09.513Z,1.60
2018-02-12T04:34:37.789Z,1.30
2018-02-12T04:37:05.395Z,1.30
2018-02-12T04:39:32.961Z,1.20
2018-02-12T04:42:00.613Z,1.30
2018-02-12T04:44:28.893Z,1.50
2018-02-12T04:46:56.456Z,1.40
2018-02-12T04:49:23.971Z,1.50
2018-02-12T04:51:51.587Z,1.60
2018-02-12T04:54:19.179Z,1.60
2018-02-12T04:56:46.738Z,1.60
2018-02-12T04:59:14.256Z,1.70
2018-02-12T05:01:41.841Z,1.70
2018-02-12T05:04:09.424Z,1.70
2018-02-12T05:06:37.028Z,1.70
2018-02-12T05:09:04.554Z,1.70
2018-02-12T05:11:32.064Z,1.70
2018-02-12T05:13:59.685Z,1.70
2018-02-12T05:16:27.970Z,1.70
2018-02-12T05:18:56.295Z,1.80
2018-02-12T05:21:23.796Z,1.80
2018-02-12T05:23:51.326Z,1.80
2018-02-12T05:26:18.862Z,1.80
2018-02-12T05:28:46.426Z,1.80
2018-02-12T05:31:13.979Z,1.80
2018-02-12T05:33:41.506Z,1.70
2018-02-12T05:36:09.040Z,1.70
2018-02-12T05:38:36.598Z,1.70
2018-02-12T05:41:04.117Z,1.80
2018-02-12T05:43:31.753Z,1.70
2018-02-12T05:45:59.338Z,1.70
2018-02-12T05:48:27.622Z,1.60
2018-02-12T05:50:55.158Z,1.50
2018-02-12T05:53:22.672Z,1.50
2018-02-12T05:55:50.325Z,1.40
2018-02-12T05:58:17.881Z,1.30
2018-02-12T06:00:45.413Z,1.30
2018-02-12T06:03:12.977Z,1.30
2018-02-12T06:05:40.567Z,1.30
2018-02-12T06:08:08.083Z,1.40
2018-02-12T06:10:35.625Z,1.40
2018-02-12T06:13:03.234Z,1.50
2018-02-12T06:15:30.749Z,1.50
2018-02-12T06:17:58.342Z,1.60
2018-02-12T06:20:25.927Z,1.50
2018-02-12T06:22:53.448Z,1.60
2018-02-12T06:25:21.748Z,1.60
2018-02-12T06:27:49.365Z,1.60
2018-02-12T06:30:16.901Z,1.70
2018-02-12T06:32:44.416Z,1.70
2018-02-12T06:35:11.969Z,1.70
2018-02-12T06:37:39.484Z,1.70
2018-02-12T06:40:07.783Z,1.70
2018-02-12T06:42:36.186Z,1.80
2018-02-12T06:45:04.535Z,1.80
2018-02-12T06:47:32.075Z,1.80
2018-02-12T06:49:59.717Z,1.80
2018-02-12T06:52:28.037Z,1.80
2018-02-12T06:54:55.587Z,1.80
2018-02-12T06:57:23.137Z,1.80
2018-02-12T06:59:51.485Z,1.80
2018-02-12T07:02:19.068Z,1.80
2018-02-12T07:04:46.620Z,1.80
2018-02-12T07:07:14.126Z,1.90
2018-02-12T07:09:42.469Z,1.90
2018-02-12T07:12:09.978Z,1.90
2018-02-12T07:14:37.535Z,1.90
2018-02-12T07:17:05.106Z,1.90
2018-02-12T07:19:32.625Z,1.90
2018-02-12T07:22:00.229Z,1.90
2018-02-12T07:24:27.768Z,1.90
2018-02-12T07:26:56.441Z,1.70
2018-02-12T07:29:23.968Z,1.70
2018-02-12T07:31:51.489Z,1.70
2018-02-12T07:34:19.000Z,1.60
2018-02-12T07:36:46.545Z,1.70
2018-02-12T07:39:14.865Z,1.90
2018-02-12T07:41:42.358Z,1.90
2018-02-12T07:44:09.881Z,2.20
2018-02-12T07:46:38.227Z,2.70
2018-02-12T07:49:05.773Z,2.70
2018-02-12T07:51:33.303Z,2.90
2018-02-12T07:54:00.898Z,3.00
2018-02-12T07:56:29.232Z,3.00
2018-02-12T07:58:56.793Z,3.00
2018-02-12T08:01:24.306Z,3.00
2018-02-12T08:03:51.848Z,2.90
2018-02-12T08:06:19.341Z,2.90
2018-02-12T08:08:46.918Z,2.70
2018-02-12T08:11:14.425Z,2.60
2018-02-12T08:13:41.966Z,2.50
2018-02-12T08:16:09.549Z,2.50
2018-02-12T08:18:37.826Z,2.40
2018-02-12T08:21:05.352Z,2.40
2018-02-12T08:23:32.919Z,2.40
2018-02-12T08:26:00.475Z,2.40
2018-02-12T08:28:28.050Z,2.50
2018-02-12T08:30:55.653Z,2.60
2018-02-12T08:33:23.261Z,2.90
2018-02-12T08:35:51.528Z,4.50
2018-02-12T08:38:19.043Z,4.40
2018-02-12T08:40:47.435Z,6.00
2018-02-12T08:43:15.701Z,6.70
2018-02-12T08:45:43.258Z,6.70
2018-02-12T08:48:10.831Z,7.40
2018-02-12T08:50:38.413Z,7.20
2018-02-12T08:53:05.966Z,6.40
2018-02-12T08:55:33.515Z,6.40
2018-02-12T08:58:01.105Z,6.80
2018-02-12T09:09:47.664Z,9.20
2018-02-12T09:12:40.961Z,9.40
2018-02-12T09:50:42.005Z,9.90
2018-02-12T09:53:46.529Z,8.50
2018-02-12T09:56:42.728Z,8.50
2018-02-12T09:59:40.572Z,8.60
2018-02-12T10:02:16.919Z,8.10
2018-02-12T10:05:11.532Z,8.00
2018-02-12T10:07:46.573Z,8.00
2018-02-12T10:10:14.067Z,8.00
2018-02-12T10:24:49.028Z,7.40
2018-02-12T10:27:18.088Z,7.80
2018-02-12T10:29:46.804Z,8.40
2018-02-12T10:41:20.035Z,8.30
2018-02-12T10:56:17.645Z,6.70
2018-02-12T10:58:49.569Z,6.70
2018-02-12T11:01:17.154Z,6.80
2018-02-12T11:03:44.772Z,6.70
2018-02-12T11:12:11.264Z,6.40
2018-02-12T11:15:00.720Z,6.50
2018-02-12T11:20:24.424Z,7.10
2018-02-12T11:25:47.088Z,7.50
2018-02-12T11:34:14.416Z,6.90
2018-02-12T11:36:42.665Z,6.40
2018-02-12T11:51:15.651Z,6.40
2018-02-12T12:16:49.996Z,6.70
2018-02-12T12:19:46.696Z,6.40
2018-02-12T12:22:15.887Z,6.40
2018-02-12T12:59:39.813Z,6.70
2018-02-12T13:02:07.524Z,6.90
2018-02-12T13:10:49.764Z,7.00
2018-02-12T14:11:39.704Z,4.90
2018-02-12T14:14:21.024Z,4.80
2018-02-12T14:25:43.090Z,4.90
2018-02-12T14:31:15.538Z,4.60
2018-02-12T14:45:13.241Z,4.10
2018-02-12T14:57:10.668Z,4.50
2018-02-12T15:57:17.356Z,4.20
2018-02-12T16:02:43.030Z,3.60
2018-02-12T16:11:15.608Z,3.40
2018-02-12T16:13:44.536Z,3.30
2018-02-12T16:16:43.954Z,3.20
2018-02-12T16:19:13.852Z,3.10
2018-02-12T16:22:10.011Z,3.10
2018-02-12T16:24:45.954Z,2.90
2018-02-12T16:27:38.202Z,2.80
2018-02-12T16:30:09.504Z,2.80
2018-02-12T16:32:40.677Z,2.70
2018-02-12T16:41:13.521Z,2.30
2018-02-12T16:43:44.792Z,2.20
2018-02-12T16:46:12.292Z,2.00
2018-02-12T16:48:51.950Z,1.80
2018-02-12T16:51:20.559Z,1.80
2018-02-12T16:56:44.180Z,1.70
2018-02-12T17:14:10.266Z,1.40
2018-02-12T17:19:46.316Z,1.30
2018-02-12T17:28:17.060Z,1.10
2018-02-12T17:36:41.137Z,1.10
2018-02-12T17:39:08.725Z,1.10
2018-02-12T17:41:36.239Z,1.10
2018-02-12T17:44:03.856Z,1.20
2018-02-12T17:46:31.381Z,1.20
2018-02-12T17:48:58.947Z,1.10
2018-02-12T17:51:26.487Z,1.10
2018-02-12T17:53:54.044Z,1.00
2018-02-12T17:56:21.558Z,1.00
2018-02-12T17:58:49.128Z,0.90
2018-02-12T18:01:16.641Z,0.90
2018-02-12T18:03:44.222Z,1.00
2018-02-12T18:06:11.890Z,1.00
2018-02-12T18:08:39.449Z,1.00
2018-02-12T18:11:07.804Z,1.10
2018-02-12T18:13:35.322Z,1.10
2018-02-12T18:16:03.655Z,1.20
2018-02-12T18:18:31.335Z,1.20
2018-02-12T18:20:58.870Z,1.30
2018-02-12T18:23:26.399Z,1.30
2018-02-12T18:25:53.925Z,1.30
2018-02-12T18:28:21.451Z,1.30
2018-02-12T18:30:48.975Z,1.30
2018-02-12T18:33:16.505Z,1.30
2018-02-12T18:35:44.312Z,1.20
2018-02-12T18:38:12.225Z,1.20
2018-02-12T18:40:39.756Z,1.20
2018-02-12T18:43:07.269Z,1.10
2018-02-12T18:45:34.769Z,1.10
2018-02-12T18:48:02.369Z,1.10
2018-02-12T18:50:29.892Z,1.00
2018-02-12T18:52:57.442Z,1.00
2018-02-12T18:55:24.981Z,0.90
2018-02-12T18:57:52.582Z,0.90
2018-02-12T19:00:20.097Z,0.90
2018-02-12T19:02:47.660Z,0.90
2018-02-12T19:05:15.256Z,0.90
2018-02-12T19:07:43.657Z,0.80
2018-02-12T19:10:11.293Z,0.80
2018-02-12T19:12:39.649Z,0.60
2018-02-12T19:15:07.283Z,0.60
2018-02-12T19:17:35.587Z,0.50
2018-02-12T19:20:03.111Z,0.50
2018-02-12T19:22:30.674Z,0.40
2018-02-12T19:24:58.210Z,0.50
2018-02-12T19:27:25.734Z,0.40
2018-02-12T19:29:53.333Z,0.40
2018-02-12T19:32:21.690Z,0.40
2018-02-12T19:34:49.228Z,0.40
2018-02-12T19:37:16.782Z,0.40
2018-02-12T19:39:44.310Z,0.30
2018-02-12T19:42:12.332Z,0.30
2018-02-12T19:44:39.921Z,0.20
2018-02-12T19:47:07.451Z,0.30
2018-02-12T19:49:35.059Z,0.20
2018-02-12T19:52:02.625Z,0.20
2018-02-12T19:54:30.168Z,0.10
2018-02-12T19:56:57.743Z,0.00
2018-02-12T19:59:26.699Z,0.10
2018-02-12T20:01:54.315Z,0.10
2018-02-12T20:04:21.873Z,0.00
2018-02-12T20:06:49.417Z,0.00
2018-02-12T20:09:16.969Z,0.00
2018-02-12T20:11:44.536Z,0.00
2018-02-12T20:14:12.088Z,-0.10
2018-02-12T20:16:40.411Z,-0.10
2018-02-12T20:19:08.001Z,-0.10
2018-02-12T20:21:35.597Z,-0.10
2018-02-12T20:24:03.125Z,-0.10
2018-02-12T20:26:30.707Z,-0.10
2018-02-12T20:28:58.467Z,0.00
2018-02-12T20:31:26.078Z,0.00
2018-02-12T20:33:53.715Z,0.00
2018-02-12T20:36:21.308Z,-0.10
2018-02-12T20:38:48.871Z,-0.10
2018-02-12T20:41:16.419Z,-0.10
2018-02-12T20:43:44.794Z,-0.10
2018-02-12T20:46:13.156Z,-0.10
2018-02-12T20:48:40.728Z,-0.10
2018-02-12T20:51:08.318Z,-0.20
2018-02-12T20:53:35.914Z,-0.20
2018-02-12T20:56:04.250Z,-0.20
2018-02-12T20:58:31.805Z,-0.20
2018-02-12T21:00:59.420Z,-0.20
2018-02-12T21:03:26.983Z,-0.20
2018-02-12T21:05:54.514Z,-0.30
2018-02-12T21:08:22.086Z,-0.30
2018-02-12T21:10:49.660Z,-0.30
2018-02-12T21:13:17.216Z,-0.30
2018-02-12T21:15:45.548Z,-0.40
2018-02-12T21:18:13.126Z,-0.40
2018-02-12T21:20:40.690Z,-0.40
2018-02-12T21:23:08.244Z,-0.30
2018-02-12T21:25:35.827Z,-0.40
2018-02-12T21:28:03.468Z,-0.40
2018-02-12T21:30:31.802Z,-0.40
2018-02-12T21:32:59.397Z,-0.40
2018-02-12T21:35:27.013Z,-0.40
2018-02-12T21:37:54.567Z,-0.40
2018-02-12T21:40:22.923Z,-0.40
2018-02-12T21:42:50.466Z,-0.50
2018-02-12T21:45:18.020Z,-0.40
2018-02-12T21:47:45.635Z,-0.40
2018-02-12T21:50:13.204Z,-0.40
2018-02-12T21:52:40.847Z,-0.40
2018-02-12T21:55:08.473Z,-0.50
2018-02-12T21:57:36.049Z,-0.50
2018-02-12T22:00:03.577Z,-0.50
2018-02-12T22:02:31.129Z,-0.40
2018-02-12T22:04:58.714Z,-0.50
2018-02-12T22:07:26.310Z,-0.50
2018-02-12T22:09:53.849Z,-0.50
2018-02-12T22:12:21.439Z,-0.50
2018-02-12T22:14:48.975Z,-0.60
2018-02-12T22:17:17.310Z,-0.60
2018-02-12T22:19:44.886Z,-0.60
2018-02-12T22:22:12.461Z,-0.60
2018-02-12T22:24:40.037Z,-0.60
2018-02-12T22:27:07.631Z,-0.60
2018-02-12T22:29:35.187Z,-0.70
2018-02-12T22:32:02.802Z,-0.70
2018-02-12T22:34:31.109Z,-0.80
2018-02-12T22:36:58.712Z,-0.90
2018-02-12T22:39:26.347Z,-0.80
2018-02-12T22:41:54.703Z,-0.80
2018-02-12T22:44:22.256Z,-0.80
2018-02-12T22:46:49.837Z,-0.80
2018-02-12T22:49:17.428Z,-0.80
2018-02-12T22:51:45.008Z,-0.80
2018-02-12T22:54:12.599Z,-0.90
2018-02-12T22:56:40.957Z,-0.80
2018-02-12T22:59:08.530Z,-0.90
2018-02-12T23:01:36.106Z,-0.90
2018-02-12T23:04:03.680Z,-0.90
2018-02-12T23:06:31.223Z,-0.80
2018-02-12T23:08:58.829Z,-0.80
2018-02-12T23:11:26.427Z,-0.80
2018-02-12T23:13:54.901Z,-0.80
2018-02-12T23:16:23.220Z,-0.80
2018-02-12T23:18:50.789Z,-0.80
2018-02-12T23:21:18.428Z,-0.80
2018-02-12T23:23:46.036Z,-0.80
2018-02-12T23:26:13.660Z,-0.90
2018-02-12T23:28:41.214Z,-0.90
2018-02-12T23:31:08.769Z,-0.90
2018-02-12T23:33:36.305Z,-0.90
2018-02-12T23:36:04.687Z,-1.00
2018-02-12T23:38:32.242Z,-1.00
2018-02-12T23:40:59.851Z,-1.00
2018-02-12T23:43:28.166Z,-1.00
2018-02-12T23:45:55.735Z,-1.00
2018-02-12T23:48:29.216Z,-1.00
2018-02-12T23:50:57.557Z,-1.00
2018-02-12T23:53:25.147Z,-1.00
2018-02-12T23:55:52.702Z,-1.00
2018-02-12T23:58:20.338Z,-1.00
